createdAt,value
2022-09-15T00:01:09.844Z,98486.84
2022-09-15T00:03:37.747Z,98481.63
2022-09-15T00:06:08.570Z,98483.25
2022-09-15T00:08:37.129Z,98479.78
2022-09-15T00:11:10.245Z,98467.06
2022-09-15T00:13:39.297Z,98473.78
2022-09-15T00:16:08.925Z,98466.19
2022-09-15T00:18:37.564Z,98461.13
2022-09-15T00:21:08.742Z,98453.59
2022-09-15T00:23:37.235Z,98445.38
2022-09-15T00:26:08.669Z,98447.81
2022-09-15T00:28:37.001Z,98461.28
2022-09-15T00:31:07.392Z,98481.50
2022-09-15T00:33:35.421Z,98480.63
2022-09-15T00:36:05.731Z,98465.41
2022-09-15T00:38:36.038Z,98459.53
2022-09-15T00:41:04.959Z,98434.22
2022-09-15T00:43:50.494Z,98420.88
2022-09-15T00:46:22.657Z,98409.16
2022-09-15T00:48:56.910Z,98425.28
2022-09-15T00:51:32.188Z,98422.88
2022-09-15T00:54:03.896Z,98438.13
2022-09-15T00:56:34.891Z,98441.50
2022-09-15T00:59:04.946Z,98416.38
2022-09-15T01:01:33.415Z,98441.44
2022-09-15T01:04:01.715Z,98435.38
2022-09-15T01:06:34.905Z,98436.97
2022-09-15T01:09:08.585Z,98444.50
2022-09-15T01:11:37.185Z,98461.41
2022-09-15T01:14:05.683Z,98456.38
2022-09-15T01:16:42.639Z,98456.38
2022-09-15T01:19:48.868Z,98466.41
2022-09-15T01:22:32.275Z,98452.81
2022-09-15T01:25:09.191Z,98455.25
2022-09-15T01:28:07.341Z,98427.44
2022-09-15T01:30:38.620Z,98452.72
2022-09-15T01:33:18.274Z,98457.72
2022-09-15T01:35:53.726Z,98467.00
2022-09-15T01:38:31.718Z,98457.72
2022-09-15T01:41:06.191Z,98461.13
2022-09-15T01:43:40.507Z,98452.66
2022-09-15T01:46:11.160Z,98469.59
2022-09-15T01:48:41.928Z,98477.28
2022-09-15T01:51:10.883Z,98473.03
2022-09-15T01:53:38.749Z,98471.25
2022-09-15T01:56:08.382Z,98472.91
2022-09-15T01:58:38.778Z,98479.72
2022-09-15T02:01:13.886Z,98456.06
2022-09-15T02:03:47.174Z,98469.53
2022-09-15T02:06:22.692Z,98462.78
2022-09-15T02:08:55.336Z,98446.88
2022-09-15T02:11:28.080Z,98458.63
2022-09-15T02:14:03.416Z,98451.13
2022-09-15T02:16:36.339Z,98470.47
2022-09-15T02:19:11.081Z,98466.25
2022-09-15T02:21:51.021Z,98461.25
2022-09-15T02:24:23.799Z,98459.59
2022-09-15T02:26:54.970Z,98468.06
2022-09-15T02:29:26.543Z,98464.75
2022-09-15T02:32:01.669Z,98463.94
2022-09-15T02:34:36.263Z,98458.06
2022-09-15T02:37:05.672Z,98454.63
2022-09-15T02:39:37.905Z,98446.94
2022-09-15T02:42:06.072Z,98446.03
2022-09-15T02:44:34.271Z,98449.41
2022-09-15T02:47:03.874Z,98448.56
2022-09-15T02:49:31.709Z,98452.88
2022-09-15T02:51:59.474Z,98453.81
2022-09-15T02:54:27.273Z,98462.28
2022-09-15T02:56:55.116Z,98445.38
2022-09-15T02:59:22.920Z,98445.34
2022-09-15T03:01:51.851Z,98444.56
2022-09-15T03:04:21.040Z,98449.56
2022-09-15T03:06:48.853Z,98444.50
2022-09-15T03:09:16.624Z,98446.16
2022-09-15T03:11:44.440Z,98451.22
2022-09-15T03:14:12.254Z,98467.19
2022-09-15T03:16:40.197Z,98461.25
2022-09-15T03:19:08.118Z,98463.75
2022-09-15T03:21:37.844Z,98456.16
2022-09-15T03:24:05.942Z,98447.75
2022-09-15T03:26:33.740Z,98453.63
2022-09-15T03:29:01.535Z,98460.47
2022-09-15T03:31:29.363Z,98458.03
2022-09-15T03:33:58.089Z,98463.91
2022-09-15T03:36:25.842Z,98455.63
2022-09-15T03:38:57.866Z,98460.66
2022-09-15T03:41:27.800Z,98458.13
2022-09-15T03:43:56.624Z,98443.03
2022-09-15T03:46:24.446Z,98438.00
2022-09-15T03:48:52.236Z,98446.56
2022-09-15T03:51:20.441Z,98450.84
2022-09-15T03:53:48.288Z,98450.91
2022-09-15T03:56:23.356Z,98438.34
2022-09-15T03:58:51.912Z,98440.94
2022-09-15T04:01:20.428Z,98445.19
2022-09-15T04:03:51.300Z,98446.03
2022-09-15T04:06:20.845Z,98435.94
2022-09-15T04:08:48.745Z,98441.88
2022-09-15T04:11:17.597Z,98433.56
2022-09-15T04:13:47.248Z,98438.69
2022-09-15T04:16:17.202Z,98447.19
2022-09-15T04:18:45.681Z,98431.28
2022-09-15T04:21:15.696Z,98433.75
2022-09-15T04:23:44.256Z,98446.34
2022-09-15T04:26:16.375Z,98437.88
2022-09-15T04:28:44.179Z,98437.84
2022-09-15T04:31:15.218Z,98433.63
2022-09-15T04:33:44.572Z,98443.75
2022-09-15T04:36:14.697Z,98444.63
2022-09-15T04:38:42.982Z,98430.34
2022-09-15T04:41:11.468Z,98436.13
2022-09-15T04:43:39.500Z,98442.75
2022-09-15T04:46:07.922Z,98439.28
2022-09-15T04:48:37.769Z,98436.66
2022-09-15T04:51:08.733Z,98434.94
2022-09-15T04:53:37.123Z,98436.53
2022-09-15T04:56:06.491Z,98446.56
2022-09-15T04:58:37.527Z,98453.22
2022-09-15T05:01:09.724Z,98460.72
2022-09-15T05:03:39.354Z,98460.66
2022-09-15T05:06:09.486Z,98462.34
2022-09-15T05:08:37.592Z,98469.88
2022-09-15T05:11:07.469Z,98463.16
2022-09-15T05:13:36.152Z,98456.31
2022-09-15T05:16:08.398Z,98458.81
2022-09-15T05:18:36.649Z,98463.75
2022-09-15T05:21:07.377Z,98453.75
2022-09-15T05:23:36.875Z,98474.59
2022-09-15T05:26:07.595Z,98467.72
2022-09-15T05:28:37.980Z,98451.66
2022-09-15T05:31:10.368Z,98459.16
2022-09-15T05:33:38.262Z,98462.41
2022-09-15T05:36:08.498Z,98467.38
2022-09-15T05:38:36.770Z,98469.88
2022-09-15T05:41:05.738Z,98470.69
2022-09-15T05:43:34.285Z,98475.56
2022-09-15T05:46:02.507Z,98478.84
2022-09-15T05:48:30.881Z,98469.50
2022-09-15T05:50:59.220Z,98473.59
2022-09-15T05:53:28.599Z,98476.06
2022-09-15T05:55:57.197Z,98471.16
2022-09-15T05:58:25.093Z,98483.47
2022-09-15T06:00:53.410Z,98482.75
2022-09-15T06:03:21.879Z,98484.59
2022-09-15T06:05:49.981Z,98493.91
2022-09-15T06:08:17.853Z,98484.66
2022-09-15T06:10:47.440Z,98488.84
2022-09-15T06:13:15.344Z,98493.81
2022-09-15T06:15:43.316Z,98491.13
2022-09-15T06:18:11.468Z,98501.28
2022-09-15T06:20:39.334Z,98497.91
2022-09-15T06:23:07.370Z,98508.78
2022-09-15T06:25:35.182Z,98513.00
2022-09-15T06:28:04.458Z,98517.13
2022-09-15T06:30:32.246Z,98519.63
2022-09-15T06:33:00.033Z,98523.75
2022-09-15T06:35:27.813Z,98523.53
2022-09-15T06:37:55.601Z,98510.91
2022-09-15T06:40:23.563Z,98529.25
2022-09-15T06:42:56.301Z,98516.50
2022-09-15T06:45:25.598Z,98519.66
2022-09-15T06:48:07.592Z,98524.56
2022-09-15T06:50:41.452Z,98516.88
2022-09-15T06:53:09.262Z,98529.38
2022-09-15T06:55:37.126Z,98530.06
2022-09-15T06:58:04.911Z,98520.44
2022-09-15T07:00:34.838Z,98522.72
2022-09-15T07:03:02.689Z,98523.25
2022-09-15T07:05:30.908Z,98518.97
2022-09-15T07:07:58.857Z,98519.59
2022-09-15T07:10:26.717Z,98526.97
2022-09-15T07:12:55.455Z,98525.97
2022-09-15T07:15:25.921Z,98530.75
2022-09-15T07:17:55.590Z,98534.00
2022-09-15T07:20:23.581Z,98551.66
2022-09-15T07:22:51.443Z,98549.03
2022-09-15T07:25:19.293Z,98544.00
2022-09-15T07:27:47.104Z,98557.16
2022-09-15T07:30:15.218Z,98568.75
2022-09-15T07:32:43.042Z,98570.25
2022-09-15T07:35:12.789Z,98576.16
2022-09-15T07:37:40.652Z,98577.78
2022-09-15T07:40:09.588Z,98594.50
2022-09-15T07:42:37.471Z,98593.63
2022-09-15T07:45:06.022Z,98591.84
2022-09-15T07:47:33.791Z,98585.56
2022-09-15T07:50:01.594Z,98586.22
2022-09-15T07:52:31.116Z,98593.53
2022-09-15T07:54:58.903Z,98581.38
2022-09-15T07:57:26.959Z,98573.16
2022-09-15T07:59:54.820Z,98576.19
2022-09-15T08:02:22.933Z,98571.72
2022-09-15T08:04:50.813Z,98570.78
2022-09-15T08:07:18.620Z,98570.91
2022-09-15T08:09:47.751Z,98579.31
2022-09-15T08:12:15.570Z,98580.97
2022-09-15T08:14:43.493Z,98583.22
2022-09-15T08:17:11.799Z,98583.06
2022-09-15T08:19:39.774Z,98579.50
2022-09-15T08:22:07.593Z,98578.44
2022-09-15T08:24:37.328Z,98576.78
2022-09-15T08:27:07.050Z,98585.53
2022-09-15T08:29:35.428Z,98570.91
2022-09-15T08:32:03.641Z,98590.50
2022-09-15T08:34:31.788Z,98579.22
2022-09-15T08:36:59.580Z,98571.59
2022-09-15T08:39:27.499Z,98579.84
2022-09-15T08:41:56.324Z,98573.25
2022-09-15T08:44:37.524Z,98578.44
2022-09-15T08:47:11.211Z,98570.91
2022-09-15T08:49:52.637Z,98569.44
2022-09-15T08:52:25.548Z,98567.53
2022-09-15T08:54:57.181Z,98552.91
2022-09-15T08:57:26.696Z,98564.16
2022-09-15T08:59:56.426Z,98563.63
2022-09-15T09:02:47.911Z,98563.63
2022-09-15T09:05:29.537Z,98558.47
2022-09-15T09:08:15.100Z,98546.16
2022-09-15T09:10:50.140Z,98539.72
2022-09-15T09:13:34.718Z,98554.03
2022-09-15T09:16:21.040Z,98547.69
2022-09-15T09:19:19.545Z,98547.00
2022-09-15T09:21:52.784Z,98547.81
2022-09-15T09:24:32.954Z,98541.19
2022-09-15T09:27:00.810Z,98542.09
2022-09-15T09:29:33.722Z,98543.88
2022-09-15T09:32:04.679Z,98543.50
2022-09-15T09:34:38.108Z,98545.63
2022-09-15T09:37:11.604Z,98541.47
2022-09-15T09:39:39.517Z,98528.38
2022-09-15T09:42:12.249Z,98544.66
2022-09-15T09:44:41.537Z,98532.91
2022-09-15T09:47:12.305Z,98524.44
2022-09-15T09:49:44.307Z,98514.81
2022-09-15T09:52:12.291Z,98513.59
2022-09-15T09:54:41.673Z,98518.44
2022-09-15T09:57:27.949Z,98517.00
2022-09-15T09:59:56.027Z,98509.91
2022-09-15T10:02:26.633Z,98510.03
2022-09-15T10:04:56.317Z,98506.00
2022-09-15T10:07:26.931Z,98509.63
2022-09-15T10:09:57.083Z,98493.22
2022-09-15T10:12:39.437Z,98498.84
2022-09-15T10:15:21.488Z,98494.16
2022-09-15T10:17:52.827Z,98490.72
2022-09-15T10:20:28.427Z,98500.00
2022-09-15T10:23:04.131Z,98460.72
2022-09-15T10:25:58.059Z,98459.00
2022-09-15T10:28:27.649Z,98457.84
2022-09-15T10:31:04.704Z,98456.66
2022-09-15T10:33:36.079Z,98458.16
2022-09-15T10:36:07.468Z,98447.03
2022-09-15T10:38:42.229Z,98465.81
2022-09-15T10:41:22.121Z,98462.84
2022-09-15T10:44:05.024Z,98456.97
2022-09-15T10:46:42.833Z,98452.09
2022-09-15T10:49:25.486Z,98446.47
2022-09-15T10:52:06.384Z,98448.88
2022-09-15T10:54:51.697Z,98443.34
2022-09-15T10:57:32.803Z,98459.56
2022-09-15T11:00:05.922Z,98456.34
2022-09-15T11:02:59.265Z,98457.50
2022-09-15T11:05:37.289Z,98467.19
2022-09-15T11:08:22.624Z,98455.59
2022-09-15T11:10:57.879Z,98458.38
2022-09-15T11:13:30.495Z,98463.97
2022-09-15T11:16:09.782Z,98454.63
2022-09-15T11:19:02.148Z,98473.84
2022-09-15T11:21:37.913Z,98445.84
2022-09-15T11:24:23.284Z,98452.28
2022-09-15T11:26:54.401Z,98446.22
2022-09-15T11:29:26.716Z,98434.16
2022-09-15T11:34:39.986Z,98436.03
2022-09-15T11:37:16.253Z,98422.69
2022-09-15T11:39:50.496Z,98426.97
2022-09-15T11:42:26.143Z,98416.34
2022-09-15T11:44:56.172Z,98415.50
2022-09-15T11:47:28.977Z,98406.50
2022-09-15T11:50:02.386Z,98411.50
2022-09-15T11:52:45.666Z,98402.81
2022-09-15T11:55:23.954Z,98405.03
2022-09-15T11:58:00.123Z,98402.53
2022-09-15T12:00:28.270Z,98410.28
2022-09-15T12:03:04.456Z,98399.75
2022-09-15T12:05:38.753Z,98407.16
2022-09-15T12:08:16.340Z,98406.25
2022-09-15T12:10:50.018Z,98394.13
2022-09-15T12:13:19.697Z,98406.69
2022-09-15T12:15:48.681Z,98390.13
2022-09-15T12:18:38.563Z,98391.22
2022-09-15T12:21:16.320Z,98393.53
2022-09-15T12:23:52.579Z,98394.94
2022-09-15T12:26:23.313Z,98382.72
2022-09-15T12:28:57.377Z,98399.91
2022-09-15T12:31:34.566Z,98388.56
2022-09-15T12:34:04.701Z,98394.09
2022-09-15T12:36:42.075Z,98399.78
2022-09-15T12:39:40.473Z,98385.19
2022-09-15T12:42:20.303Z,98393.97
2022-09-15T12:44:53.618Z,98395.91
2022-09-15T12:47:38.962Z,98396.59
2022-09-15T12:50:24.148Z,98401.69
2022-09-15T12:52:55.040Z,98403.38
2022-09-15T12:55:27.189Z,98411.09
2022-09-15T12:57:58.559Z,98400.81
2022-09-15T13:00:54.844Z,98407.56
2022-09-15T13:03:50.557Z,98396.41
2022-09-15T13:06:21.626Z,98397.69
2022-09-15T13:09:16.867Z,98394.78
2022-09-15T13:11:48.535Z,98394.50
2022-09-15T13:14:25.688Z,98393.00
2022-09-15T13:16:58.259Z,98386.25
2022-09-15T13:19:31.935Z,98380.25
2022-09-15T13:22:05.991Z,98379.34
2022-09-15T13:24:43.665Z,98372.63
2022-09-15T13:27:14.394Z,98376.53
2022-09-15T13:29:47.209Z,98360.66
2022-09-15T13:32:34.228Z,98362.63
2022-09-15T13:35:27.749Z,98364.75
2022-09-15T13:38:23.001Z,98370.03
2022-09-15T13:41:19.154Z,98377.16
2022-09-15T13:44:10.044Z,98357.09
2022-09-15T13:46:50.757Z,98363.84
2022-09-15T13:49:36.203Z,98370.16
2022-09-15T13:52:15.275Z,98371.22
2022-09-15T13:55:16.596Z,98384.31
2022-09-15T14:00:56.435Z,98394.78
2022-09-15T14:03:28.226Z,98377.41
2022-09-15T14:05:57.309Z,98357.41
2022-09-15T14:08:27.994Z,98363.28
2022-09-15T14:10:59.490Z,98378.53
2022-09-15T14:13:29.637Z,98372.06
2022-09-15T14:16:01.178Z,98367.19
2022-09-15T14:18:29.680Z,98374.19
2022-09-15T14:21:02.850Z,98366.59
2022-09-15T14:23:31.584Z,98365.09
2022-09-15T14:26:01.308Z,98357.50
2022-09-15T14:28:32.139Z,98354.19
2022-09-15T14:31:02.193Z,98339.94
2022-09-15T14:33:37.914Z,98345.69
2022-09-15T14:36:22.359Z,98337.16
2022-09-15T14:39:08.685Z,98327.81
2022-09-15T14:41:37.376Z,98334.50
2022-09-15T14:47:21.162Z,98323.56
2022-09-15T14:49:49.870Z,98328.75
2022-09-15T14:52:27.669Z,98328.97
2022-09-15T14:54:59.714Z,98331.84
2022-09-15T14:57:31.501Z,98336.56
2022-09-15T15:00:03.483Z,98332.19
2022-09-15T15:02:45.385Z,98331.41
2022-09-15T15:05:18.717Z,98333.25
2022-09-15T15:07:46.729Z,98342.53
2022-09-15T15:10:20.945Z,98347.66
2022-09-15T15:12:51.769Z,98336.81
2022-09-15T15:15:20.619Z,98336.81
2022-09-15T15:17:52.703Z,98326.50
2022-09-15T15:20:23.036Z,98331.34
2022-09-15T15:23:11.753Z,98338.88
2022-09-15T15:25:39.969Z,98343.13
2022-09-15T15:28:07.873Z,98343.97
2022-09-15T15:30:44.671Z,98333.66
2022-09-15T15:33:32.140Z,98346.50
2022-09-15T15:36:05.155Z,98344.13
2022-09-15T15:38:35.830Z,98339.16
2022-09-15T15:41:06.346Z,98310.00
2022-09-15T15:43:34.381Z,98335.38
2022-09-15T15:46:04.862Z,98340.69
2022-09-15T15:48:37.983Z,98348.25
2022-09-15T15:51:07.391Z,98352.59
2022-09-15T15:53:35.568Z,98342.66
2022-09-15T15:56:03.859Z,98343.50
2022-09-15T15:58:31.674Z,98347.75
2022-09-15T16:00:59.905Z,98340.16
2022-09-15T16:03:27.903Z,98336.03
2022-09-15T16:05:59.578Z,98329.75
2022-09-15T16:08:31.339Z,98348.31
2022-09-15T16:11:01.377Z,98344.38
2022-09-15T16:13:29.712Z,98348.56
2022-09-15T16:16:00.812Z,98341.06
2022-09-15T16:18:28.969Z,98353.00
2022-09-15T16:20:58.219Z,98333.78
2022-09-15T16:23:26.101Z,98324.75
2022-09-15T16:25:57.554Z,98343.16
2022-09-15T16:28:25.456Z,98339.78
2022-09-15T16:30:53.311Z,98344.00
2022-09-15T16:33:22.025Z,98332.38
2022-09-15T16:35:51.611Z,98343.16
2022-09-15T16:38:21.314Z,98340.56
2022-09-15T16:40:51.150Z,98350.72
2022-09-15T16:43:21.508Z,98355.91
2022-09-15T16:45:50.594Z,98357.78
2022-09-15T16:48:18.768Z,98358.72
2022-09-15T16:51:16.910Z,98366.50
2022-09-15T16:53:38.069Z,98363.13
2022-09-15T16:56:07.563Z,98364.81
2022-09-15T16:58:35.425Z,98356.56
2022-09-15T17:01:03.918Z,98351.47
2022-09-15T17:03:31.938Z,98357.38
2022-09-15T17:06:01.257Z,98360.84
2022-09-15T17:08:31.392Z,98359.19
2022-09-15T17:11:03.843Z,98358.53
2022-09-15T17:13:33.184Z,98360.38
2022-09-15T17:16:01.993Z,98374.09
2022-09-15T17:18:30.331Z,98367.41
2022-09-15T17:20:58.924Z,98380.16
2022-09-15T17:23:28.584Z,98384.44
2022-09-15T17:25:59.045Z,98371.84
2022-09-15T17:28:31.088Z,98377.66
2022-09-15T17:31:01.196Z,98382.75
2022-09-15T17:33:31.020Z,98393.00
2022-09-15T17:35:59.084Z,98402.38
2022-09-15T17:38:27.505Z,98396.50
2022-09-15T17:40:56.188Z,98402.63
2022-09-15T17:43:26.521Z,98408.72
2022-09-15T17:45:58.110Z,98419.75
2022-09-15T17:48:26.405Z,98424.97
2022-09-15T17:50:54.215Z,98425.19
2022-09-15T17:53:23.479Z,98440.25
2022-09-15T17:55:52.002Z,98446.97
2022-09-15T17:58:19.984Z,98441.25
2022-09-15T18:00:49.065Z,98441.13
2022-09-15T18:03:23.805Z,98430.31
2022-09-15T18:05:52.754Z,98424.63
2022-09-15T18:08:20.838Z,98431.44
2022-09-15T18:10:48.905Z,98437.56
2022-09-15T18:13:19.020Z,98443.56
2022-09-15T18:15:48.793Z,98418.53
2022-09-15T18:18:19.736Z,98425.94
2022-09-15T18:20:50.661Z,98437.88
2022-09-15T18:23:21.153Z,98435.41
2022-09-15T18:25:49.632Z,98439.84
2022-09-15T18:28:18.201Z,98438.38
2022-09-15T18:30:48.475Z,98440.94
2022-09-15T18:33:17.987Z,98429.47
2022-09-15T18:35:46.813Z,98440.47
2022-09-15T18:38:16.516Z,98446.44
2022-09-15T18:40:49.068Z,98451.63
2022-09-15T18:43:16.924Z,98445.03
2022-09-15T18:45:45.300Z,98444.25
2022-09-15T18:48:13.769Z,98441.72
2022-09-15T18:50:42.373Z,98420.91
2022-09-15T18:53:10.423Z,98435.06
2022-09-15T18:55:41.527Z,98408.41
2022-09-15T18:58:09.493Z,98411.13
2022-09-15T19:00:37.802Z,98419.59
2022-09-15T19:03:09.270Z,98426.44
2022-09-15T19:05:37.625Z,98425.78
2022-09-15T19:08:08.129Z,98425.91
2022-09-15T19:10:36.067Z,98429.47
2022-09-15T19:13:05.271Z,98429.66
2022-09-15T19:15:35.709Z,98435.72
2022-09-15T19:18:03.629Z,98435.06
2022-09-15T19:20:31.702Z,98433.50
2022-09-15T19:22:59.596Z,98420.19
2022-09-15T19:25:27.441Z,98418.75
2022-09-15T19:27:55.295Z,98428.06
2022-09-15T19:30:24.716Z,98428.94
2022-09-15T19:32:53.619Z,98434.09
2022-09-15T19:35:21.509Z,98454.44
2022-09-15T19:37:49.368Z,98461.28
2022-09-15T19:40:17.439Z,98464.88
2022-09-15T19:42:46.269Z,98479.94
2022-09-15T19:45:14.915Z,98480.13
2022-09-15T19:47:44.056Z,98486.91
2022-09-15T19:50:12.862Z,98506.28
2022-09-15T19:52:40.796Z,98520.63
2022-09-15T19:55:09.855Z,98515.66
2022-09-15T19:57:39.755Z,98519.06
2022-09-15T20:00:09.385Z,98519.91
2022-09-15T20:02:37.395Z,98533.34
2022-09-15T20:05:08.002Z,98530.84
2022-09-15T20:07:35.822Z,98535.09
2022-09-15T20:10:03.751Z,98538.53
2022-09-15T20:12:31.590Z,98540.28
2022-09-15T20:14:59.628Z,98532.69
2022-09-15T20:17:27.789Z,98542.78
2022-09-15T20:19:55.636Z,98538.53
2022-09-15T20:22:24.953Z,98554.56
2022-09-15T20:24:52.798Z,98556.38
2022-09-15T20:27:20.589Z,98553.81
2022-09-15T20:29:48.426Z,98566.38
2022-09-15T20:32:16.218Z,98569.56
2022-09-15T20:34:44.019Z,98573.59
2022-09-15T20:37:11.851Z,98586.25
2022-09-15T20:39:41.385Z,98582.88
2022-09-15T20:42:09.197Z,98587.94
2022-09-15T20:44:36.966Z,98587.81
2022-09-15T20:47:04.827Z,98582.59
2022-09-15T20:49:32.623Z,98584.28
2022-09-15T20:52:00.426Z,98587.75
2022-09-15T20:54:28.198Z,98583.44
2022-09-15T20:56:57.343Z,98579.94
2022-09-15T20:59:25.938Z,98588.19
2022-09-15T21:01:53.907Z,98586.50
2022-09-15T21:04:21.769Z,98575.59
2022-09-15T21:06:49.705Z,98580.41
2022-09-15T21:09:18.472Z,98580.25
2022-09-15T21:11:50.137Z,98580.22
2022-09-15T21:14:21.916Z,98581.09
2022-09-15T21:16:49.838Z,98581.94
2022-09-15T21:19:18.061Z,98586.13
2022-09-15T21:21:45.849Z,98592.75
2022-09-15T21:24:13.849Z,98599.44
2022-09-15T21:26:56.657Z,98607.03
2022-09-15T21:29:27.569Z,98613.75
2022-09-15T21:31:56.215Z,98622.22
2022-09-15T21:34:24.488Z,98618.00
2022-09-15T21:36:53.493Z,98621.31
2022-09-15T21:39:21.358Z,98609.44
2022-09-15T21:41:49.727Z,98599.41
2022-09-15T21:44:17.605Z,98622.06
2022-09-15T21:46:47.219Z,98608.59
2022-09-15T21:49:15.319Z,98623.78
2022-09-15T21:51:43.160Z,98637.41
2022-09-15T21:54:11.054Z,98643.31
2022-09-15T21:56:38.995Z,98631.44
2022-09-15T21:59:08.936Z,98626.41
2022-09-15T22:01:37.146Z,98634.22
2022-09-15T22:04:10.288Z,98646.81
2022-09-15T22:06:40.512Z,98640.16
2022-09-15T22:09:11.621Z,98648.75
2022-09-15T22:11:40.050Z,98654.66
2022-09-15T22:14:08.893Z,98658.00
2022-09-15T22:16:38.207Z,98658.72
2022-09-15T22:19:09.640Z,98657.84
2022-09-15T22:21:41.413Z,98662.94
2022-09-15T22:24:12.034Z,98665.53
2022-09-15T22:26:40.292Z,98673.19
2022-09-15T22:29:08.132Z,98686.69
2022-09-15T22:31:36.411Z,98690.00
2022-09-15T22:34:04.834Z,98695.97
2022-09-15T22:36:34.425Z,98691.69
2022-09-15T22:39:05.487Z,98686.69
2022-09-15T22:41:35.308Z,98692.59
2022-09-15T22:44:03.788Z,98698.50
2022-09-15T22:46:32.071Z,98698.44
2022-09-15T22:49:00.055Z,98700.13
2022-09-15T22:51:27.960Z,98687.56
2022-09-15T22:53:57.748Z,98708.50
2022-09-15T22:56:26.758Z,98709.34
2022-09-15T22:58:56.177Z,98715.31
2022-09-15T23:01:26.431Z,98718.66
2022-09-15T23:03:56.550Z,98725.44
2022-09-15T23:06:26.106Z,98722.91
2022-09-15T23:08:55.157Z,98716.22
2022-09-15T23:11:25.548Z,98711.19
2022-09-15T23:13:54.313Z,98716.31
2022-09-15T23:16:23.150Z,98714.63
2022-09-15T23:18:51.288Z,98718.00
2022-09-15T23:21:19.533Z,98713.81
2022-09-15T23:23:49.136Z,98702.06
2022-09-15T23:26:19.490Z,98689.38
2022-09-15T23:28:49.234Z,98688.59
2022-09-15T23:31:17.570Z,98720.72
2022-09-15T23:33:45.970Z,98732.50
2022-09-15T23:36:15.597Z,98735.91
2022-09-15T23:38:45.365Z,98749.38
2022-09-15T23:41:14.615Z,98746.88
2022-09-15T23:43:42.575Z,98751.22
2022-09-15T23:46:11.852Z,98748.00
2022-09-15T23:48:39.822Z,98751.69
2022-09-15T23:51:07.829Z,98753.41
2022-09-15T23:53:35.966Z,98758.47
2022-09-15T23:56:04.080Z,98764.31
2022-09-15T23:58:32.054Z,98757.59
